Terminal Aerodrome Forecast
Issued by NWS

Home | Current Version | Previous Version | Graphics & Text | Print | Product List | Glossary On
Versions: 1 2 3 4 5 6 7 8 9 10 11 12 13 14 15 16 17
557
FTUS43 KICT 142326
TAFSLN
TAF
KSLN 142326Z 1500/1524 VRB04KT P6SM OVC035
      TEMPO 1500/1504 6SM -FZRA OVC025
     FM150400 07004KT 5SM -FZRA OVC015
     FM150900 VRB03KT 3SM -FZRA OVC008
     FM151400 05004KT 2SM FZRA OVC003
     FM151800 07005KT 2SM FZRA OVC003
     FM152000 06005KT 3SM -RA OVC005=

USA.gov is the U.S. government's official web portal to all federal, state and local government web resources and services.